aviador You're here:

KRWF Decoded Metar

REDWOOD FALL in MN, USA
Report Time2018-06-18 14:53:00
UTC Time2018-06-18 15:24:55
Flight Rules mvfr MVFR
Wind030° at 07 Gusting to 18 kt
W.Decomp.*RWY 05: 6.4 kt HW 2.8 kt LCW
RWY 30: 0.5 kt HW 7.0 kt RCW
W.Rank030° ranks 35
Current wind is above 030° avg. (5.7)
Visibility9999 m
Phenomena:N/A
Clouds:Broken 011 Hf
Overcast 022 Hf
Expected CloudBase > 400 ft AGL from Temp-Dew spread
Ceiling1,100 ft
Temp19°C (ISA +6)
Dew Point18°C (94% RH)
QNH1016 hPa
Density Alt1,903 ft
Elevation1,020 ft
Report Wrong Elevation
Raw Report
KRWF 181453Z AUTO 03007G18KT 10SM BKN011 OVC022 19/18 A3000 RMK
AO2 RAB00E17 SLP154 P0000 60001 T01890178 51011=

Extra information for KRWF:More info

Metar Taf Metar & Taf Last 4 Metars F.Rules Stats Wind Profile Meteogram Temp Stats Airport Information Weather charts Add Link Nearby VenuesMetar ALERT Operation Metar Decoded Social comments

AIRNAV info for KRWF